AAL458 YMML-YSSY
Flight info
| Callsign | AAL458 |
|---|---|
| Flight time | 1h 1m |
| Altitude | 37000 |
| Route | DOSEL2/34 DOSEL Y59 RIVET RIVET4 |
| Aircraft | B77W/H-VGDW/C |
Departure
| Time | 2026-05-04 07:20 |
|---|---|
| Airport | Melbourne Airport (YMML) |
Arrival
| Time | 2026-05-04 08:22 |
|---|---|
| Airport | Sydney Kingsford Smith International Airport (YSSY) |
| Time | Latitude | Longitude | Altitude | Speed | Heading |
|---|---|---|---|---|---|
| 2026-05-04 07:01 | -37.67369 | 144.84632 | 360 ft | 0 kts | 352° |
| 2026-05-04 07:12 | -37.67370 | 144.84632 | 360 ft | 1 kts | 352° |
| 2026-05-04 07:12 | -37.67384 | 144.84635 | 366 ft | 5 kts | 352° |
| 2026-05-04 07:13 | -37.67412 | 144.84640 | 365 ft | 7 kts | 344° |
| 2026-05-04 07:13 | -37.67440 | 144.84663 | 364 ft | 3 kts | 302° |
| 2026-05-04 07:13 | -37.67448 | 144.84686 | 364 ft | 0 kts | 273° |
| 2026-05-04 07:15 | -37.67447 | 144.84669 | 366 ft | 5 kts | 272° |
| 2026-05-04 07:15 | -37.67449 | 144.84625 | 361 ft | 5 kts | 265° |
| 2026-05-04 07:15 | -37.67453 | 144.84578 | 367 ft | 6 kts | 263° |
| 2026-05-04 07:15 | -37.67459 | 144.84526 | 362 ft | 8 kts | 261° |
| 2026-05-04 07:16 | -37.67473 | 144.84415 | 366 ft | 14 kts | 261° |
| 2026-05-04 07:16 | -37.67530 | 144.84328 | 366 ft | 14 kts | 191° |
| 2026-05-04 07:16 | -37.67632 | 144.84350 | 363 ft | 16 kts | 170° |
| 2026-05-04 07:16 | -37.67752 | 144.84373 | 362 ft | 19 kts | 172° |
| 2026-05-04 07:17 | -37.67888 | 144.84398 | 362 ft | 21 kts | 172° |
| 2026-05-04 07:17 | -37.68042 | 144.84425 | 357 ft | 23 kts | 171° |
| 2026-05-04 07:17 | -37.68211 | 144.84458 | 350 ft | 26 kts | 171° |
| 2026-05-04 07:17 | -37.68380 | 144.84439 | 340 ft | 25 kts | 210° |
| 2026-05-04 07:18 | -37.68518 | 144.84318 | 333 ft | 21 kts | 226° |
| 2026-05-04 07:18 | -37.68541 | 144.84269 | 333 ft | 9 kts | 248° |
| 2026-05-04 07:18 | -37.68545 | 144.84256 | 334 ft | 0 kts | 252° |
| 2026-05-04 07:19 | -37.68553 | 144.84220 | 334 ft | 16 kts | 258° |
| 2026-05-04 07:20 | -37.68503 | 144.84088 | 336 ft | 22 kts | 338° |
| 2026-05-04 07:20 | -37.68124 | 144.84012 | 355 ft | 110 kts | 352° |
| 2026-05-04 07:20 | -37.67025 | 144.83810 | 776 ft | 189 kts | 353° |
| 2026-05-04 07:20 | -37.65699 | 144.83562 | 2540 ft | 190 kts | 348° |
| 2026-05-04 07:22 | -37.54788 | 144.84843 | 7581 ft | 268 kts | 19° |
| 2026-05-04 07:22 | -37.53114 | 144.85890 | 8643 ft | 270 kts | 19° |
| 2026-05-04 07:23 | -37.51403 | 144.86952 | 9657 ft | 279 kts | 19° |
| 2026-05-04 07:23 | -37.49631 | 144.88038 | 10524 ft | 291 kts | 19° |
| 2026-05-04 07:23 | -37.47719 | 144.89193 | 10897 ft | 321 kts | 20° |
| 2026-05-04 07:23 | -37.45595 | 144.90472 | 11157 ft | 354 kts | 20° |
| 2026-05-04 07:24 | -37.43445 | 144.92128 | 11705 ft | 377 kts | 37° |
| 2026-05-04 07:24 | -37.41783 | 144.94765 | 12520 ft | 390 kts | 52° |
| 2026-05-04 07:24 | -37.40243 | 144.97633 | 13448 ft | 400 kts | 51° |
| 2026-05-04 07:24 | -37.38645 | 145.00525 | 14487 ft | 404 kts | 51° |
| 2026-05-04 07:25 | -37.37024 | 145.03418 | 15597 ft | 406 kts | 51° |
| 2026-05-04 07:26 | -37.25064 | 145.24514 | 21994 ft | 442 kts | 50° |
| 2026-05-04 07:27 | -37.23268 | 145.27671 | 22832 ft | 446 kts | 49° |
| 2026-05-04 07:27 | -37.21459 | 145.30849 | 23643 ft | 451 kts | 49° |
| 2026-05-04 07:27 | -37.19609 | 145.34092 | 23978 ft | 465 kts | 49° |
| 2026-05-04 07:27 | -37.17692 | 145.37443 | 23951 ft | 477 kts | 49° |
| 2026-05-04 07:28 | -37.15751 | 145.40844 | 23964 ft | 480 kts | 49° |
| 2026-05-04 07:28 | -37.13804 | 145.44249 | 23932 ft | 480 kts | 49° |
| 2026-05-04 07:28 | -37.11863 | 145.47637 | 23962 ft | 479 kts | 48° |
| 2026-05-04 07:28 | -37.09917 | 145.51026 | 23954 ft | 479 kts | 48° |
| 2026-05-04 07:29 | -37.07973 | 145.54410 | 23959 ft | 478 kts | 48° |
| 2026-05-04 07:29 | -37.06033 | 145.57783 | 23961 ft | 477 kts | 47° |
| 2026-05-04 07:29 | -37.04095 | 145.61145 | 23971 ft | 476 kts | 47° |
| 2026-05-04 07:29 | -37.02156 | 145.64510 | 23970 ft | 476 kts | 47° |
| 2026-05-04 07:30 | -37.00217 | 145.67870 | 23952 ft | 476 kts | 47° |
| 2026-05-04 07:30 | -36.98279 | 145.71226 | 23961 ft | 477 kts | 47° |
| 2026-05-04 07:30 | -36.96336 | 145.74588 | 23969 ft | 476 kts | 47° |
| 2026-05-04 07:30 | -36.94396 | 145.77944 | 23968 ft | 476 kts | 47° |
| 2026-05-04 07:31 | -36.92454 | 145.81297 | 23983 ft | 476 kts | 47° |
| 2026-05-04 07:31 | -36.90512 | 145.84646 | 23966 ft | 476 kts | 47° |
| 2026-05-04 07:33 | -36.76924 | 146.08006 | 27901 ft | 467 kts | 45° |
| 2026-05-04 07:33 | -36.75021 | 146.11264 | 28717 ft | 466 kts | 45° |
| 2026-05-04 07:33 | -36.73104 | 146.14536 | 29416 ft | 468 kts | 45° |
| 2026-05-04 07:33 | -36.71179 | 146.17819 | 30182 ft | 468 kts | 45° |
| 2026-05-04 07:34 | -36.69263 | 146.21087 | 30868 ft | 466 kts | 45° |
| 2026-05-04 07:34 | -36.67351 | 146.24347 | 31506 ft | 467 kts | 45° |
| 2026-05-04 07:34 | -36.65456 | 146.27573 | 32092 ft | 467 kts | 45° |
| 2026-05-04 07:34 | -36.63513 | 146.30878 | 32694 ft | 468 kts | 45° |
| 2026-05-04 07:35 | -36.61595 | 146.34142 | 33316 ft | 466 kts | 45° |
| 2026-05-04 07:35 | -36.59673 | 146.37406 | 33867 ft | 467 kts | 45° |
| 2026-05-04 07:35 | -36.57749 | 146.40668 | 34312 ft | 469 kts | 45° |
| 2026-05-04 07:35 | -36.55843 | 146.43896 | 34712 ft | 470 kts | 45° |
| 2026-05-04 07:36 | -36.53904 | 146.47178 | 35125 ft | 472 kts | 45° |
| 2026-05-04 07:36 | -36.51932 | 146.50514 | 35556 ft | 473 kts | 45° |
| 2026-05-04 07:38 | -36.38016 | 146.73947 | 37023 ft | 503 kts | 45° |
| 2026-05-04 07:38 | -36.35923 | 146.77459 | 37026 ft | 509 kts | 46° |
| 2026-05-04 07:38 | -36.31668 | 146.84598 | 37014 ft | 520 kts | 46° |
| 2026-05-04 07:39 | -36.27347 | 146.91836 | 37023 ft | 524 kts | 46° |
| 2026-05-04 07:39 | -36.22996 | 146.99106 | 37024 ft | 527 kts | 46° |
| 2026-05-04 07:40 | -36.18617 | 147.06405 | 37013 ft | 528 kts | 45° |
| 2026-05-04 07:40 | -36.14231 | 147.13693 | 37011 ft | 527 kts | 45° |
| 2026-05-04 07:41 | -36.09863 | 147.20942 | 37020 ft | 526 kts | 45° |
| 2026-05-04 07:41 | -36.05490 | 147.28188 | 37028 ft | 525 kts | 45° |
| 2026-05-04 07:42 | -36.01125 | 147.35402 | 37031 ft | 523 kts | 45° |
| 2026-05-04 07:42 | -35.96798 | 147.42541 | 37032 ft | 523 kts | 45° |
| 2026-05-04 07:43 | -35.92440 | 147.49716 | 37041 ft | 522 kts | 45° |
| 2026-05-04 07:43 | -35.88086 | 147.56867 | 37053 ft | 521 kts | 45° |
| 2026-05-04 07:44 | -35.83731 | 147.64009 | 37043 ft | 521 kts | 45° |
| 2026-05-04 07:44 | -35.79373 | 147.71136 | 37028 ft | 521 kts | 44° |
| 2026-05-04 07:45 | -35.75012 | 147.78247 | 37052 ft | 522 kts | 44° |
| 2026-05-04 07:45 | -35.70634 | 147.85376 | 37067 ft | 522 kts | 44° |
| 2026-05-04 07:46 | -35.66238 | 147.92520 | 37065 ft | 523 kts | 44° |
| 2026-05-04 07:46 | -35.61836 | 147.99663 | 37051 ft | 524 kts | 44° |
| 2026-05-04 07:47 | -35.57424 | 148.06805 | 37079 ft | 525 kts | 44° |
| 2026-05-04 07:49 | -35.39709 | 148.35333 | 37074 ft | 526 kts | 44° |
| 2026-05-04 07:49 | -35.35255 | 148.42448 | 37056 ft | 526 kts | 44° |
| 2026-05-04 07:50 | -35.30798 | 148.49560 | 37056 ft | 526 kts | 44° |
| 2026-05-04 07:50 | -35.26345 | 148.56655 | 37072 ft | 526 kts | 44° |
| 2026-05-04 07:51 | -35.21886 | 148.63746 | 37069 ft | 526 kts | 44° |
| 2026-05-04 07:51 | -35.17427 | 148.70821 | 37062 ft | 525 kts | 44° |
| 2026-05-04 07:52 | -35.12962 | 148.77890 | 37055 ft | 525 kts | 44° |
| 2026-05-04 07:52 | -35.08498 | 148.84944 | 37072 ft | 525 kts | 44° |
| 2026-05-04 07:54 | -34.90632 | 149.13041 | 36203 ft | 522 kts | 44° |
| 2026-05-04 07:55 | -34.88410 | 149.16522 | 35384 ft | 521 kts | 43° |
| 2026-05-04 07:55 | -34.86199 | 149.19984 | 34493 ft | 511 kts | 43° |
| 2026-05-04 07:55 | -34.84054 | 149.23350 | 33718 ft | 495 kts | 43° |
| 2026-05-04 07:55 | -34.81967 | 149.26617 | 33130 ft | 484 kts | 43° |
| 2026-05-04 07:56 | -34.79900 | 149.29828 | 32566 ft | 480 kts | 43° |
| 2026-05-04 07:56 | -34.77849 | 149.33015 | 32026 ft | 476 kts | 43° |
| 2026-05-04 07:56 | -34.75816 | 149.36176 | 31478 ft | 473 kts | 43° |
| 2026-05-04 07:56 | -34.73875 | 149.39404 | 30955 ft | 474 kts | 48° |
| 2026-05-04 07:57 | -34.72200 | 149.42867 | 30444 ft | 477 kts | 54° |
| 2026-05-04 07:57 | -34.70667 | 149.46437 | 29901 ft | 474 kts | 54° |
| 2026-05-04 07:57 | -34.69160 | 149.49983 | 29295 ft | 471 kts | 54° |
| 2026-05-04 07:57 | -34.67658 | 149.53499 | 28717 ft | 467 kts | 54° |
| 2026-05-04 07:58 | -34.66157 | 149.56981 | 28193 ft | 462 kts | 54° |
| 2026-05-04 07:58 | -34.64685 | 149.60368 | 27628 ft | 458 kts | 54° |
| 2026-05-04 07:58 | -34.63196 | 149.63773 | 27113 ft | 454 kts | 53° |
| 2026-05-04 07:58 | -34.61715 | 149.67147 | 26560 ft | 451 kts | 54° |
| 2026-05-04 07:59 | -34.60244 | 149.70496 | 26054 ft | 448 kts | 54° |
| 2026-05-04 07:59 | -34.58781 | 149.73823 | 25534 ft | 445 kts | 54° |
| 2026-05-04 07:59 | -34.57330 | 149.77123 | 25025 ft | 443 kts | 54° |
| 2026-05-04 07:59 | -34.55884 | 149.80409 | 24521 ft | 440 kts | 53° |
| 2026-05-04 08:00 | -34.54440 | 149.83686 | 23996 ft | 439 kts | 53° |
| 2026-05-04 08:00 | -34.53005 | 149.86941 | 23433 ft | 438 kts | 53° |
| 2026-05-04 08:00 | -34.51574 | 149.90187 | 22863 ft | 435 kts | 54° |
| 2026-05-04 08:02 | -34.41837 | 150.12202 | 19330 ft | 404 kts | 55° |
| 2026-05-04 08:02 | -34.40507 | 150.15192 | 18846 ft | 403 kts | 55° |
| 2026-05-04 08:02 | -34.39177 | 150.18176 | 18329 ft | 397 kts | 56° |
| 2026-05-04 08:03 | -34.37898 | 150.21063 | 17803 ft | 384 kts | 56° |
| 2026-05-04 08:03 | -34.36632 | 150.23908 | 17331 ft | 383 kts | 56° |
| 2026-05-04 08:03 | -34.35368 | 150.26740 | 16864 ft | 382 kts | 56° |
| 2026-05-04 08:03 | -34.34106 | 150.29563 | 16384 ft | 381 kts | 56° |
| 2026-05-04 08:04 | -34.33270 | 150.31436 | 16083 ft | 381 kts | 56° |
| 2026-05-04 08:04 | -34.32013 | 150.34248 | 15626 ft | 381 kts | 56° |
| 2026-05-04 08:04 | -34.30752 | 150.37070 | 15150 ft | 381 kts | 56° |
| 2026-05-04 08:04 | -34.29494 | 150.39881 | 14698 ft | 379 kts | 56° |
| 2026-05-04 08:05 | -34.28280 | 150.42605 | 14225 ft | 367 kts | 56° |
| 2026-05-04 08:05 | -34.27054 | 150.45342 | 13792 ft | 367 kts | 56° |
| 2026-05-04 08:05 | -34.25835 | 150.48062 | 13282 ft | 368 kts | 56° |
| 2026-05-04 08:05 | -34.24624 | 150.50767 | 12799 ft | 360 kts | 56° |
| 2026-05-04 08:06 | -34.23441 | 150.53411 | 12358 ft | 357 kts | 56° |
| 2026-05-04 08:06 | -34.22255 | 150.56051 | 11900 ft | 357 kts | 55° |
| 2026-05-04 08:06 | -34.21072 | 150.58685 | 11473 ft | 356 kts | 55° |
| 2026-05-04 08:06 | -34.19903 | 150.61296 | 11015 ft | 348 kts | 56° |
| 2026-05-04 08:08 | -34.12906 | 150.76834 | 9849 ft | 290 kts | 54° |
| 2026-05-04 08:08 | -34.11954 | 150.78946 | 9525 ft | 290 kts | 54° |
| 2026-05-04 08:10 | -34.04576 | 150.95322 | 7540 ft | 272 kts | 55° |
| 2026-05-04 08:11 | -34.03665 | 150.97338 | 7317 ft | 274 kts | 56° |
| 2026-05-04 08:11 | -34.03535 | 151.01918 | 6851 ft | 298 kts | 117° |
| 2026-05-04 08:11 | -34.04839 | 151.03847 | 6609 ft | 296 kts | 135° |
| 2026-05-04 08:12 | -34.06312 | 151.05613 | 6347 ft | 301 kts | 134° |
| 2026-05-04 08:12 | -34.07837 | 151.07326 | 6080 ft | 298 kts | 147° |
| 2026-05-04 08:12 | -34.09718 | 151.08250 | 5838 ft | 287 kts | 172° |
| 2026-05-04 08:12 | -34.11642 | 151.08701 | 5596 ft | 285 kts | 172° |
| 2026-05-04 08:13 | -34.13604 | 151.09189 | 5346 ft | 283 kts | 171° |
| 2026-05-04 08:13 | -34.15490 | 151.09672 | 5102 ft | 279 kts | 171° |
| 2026-05-04 08:13 | -34.17396 | 151.10163 | 4730 ft | 272 kts | 171° |
| 2026-05-04 08:13 | -34.19200 | 151.10631 | 4455 ft | 258 kts | 171° |
| 2026-05-04 08:14 | -34.20949 | 151.11113 | 4092 ft | 259 kts | 162° |
| 2026-05-04 08:14 | -34.22444 | 151.12301 | 3686 ft | 259 kts | 130° |
| 2026-05-04 08:14 | -34.23245 | 151.14180 | 3318 ft | 249 kts | 97° |
| 2026-05-04 08:16 | -34.18984 | 151.24045 | 2972 ft | 167 kts | 342° |
| 2026-05-04 08:16 | -34.17937 | 151.23713 | 2954 ft | 147 kts | 344° |
| 2026-05-04 08:16 | -34.16965 | 151.23436 | 3004 ft | 153 kts | 344° |
| 2026-05-04 08:17 | -34.15846 | 151.23133 | 2975 ft | 164 kts | 345° |
| 2026-05-04 08:17 | -34.14736 | 151.22843 | 3027 ft | 164 kts | 345° |
| 2026-05-04 08:17 | -34.13592 | 151.22543 | 3032 ft | 170 kts | 345° |
| 2026-05-04 08:17 | -34.12435 | 151.22241 | 3016 ft | 169 kts | 347° |
| 2026-05-04 08:19 | -34.04511 | 151.20172 | 1672 ft | 157 kts | 349° |
| 2026-05-04 08:19 | -34.03448 | 151.19895 | 1452 ft | 153 kts | 350° |
| 2026-05-04 08:20 | -34.02424 | 151.19629 | 1268 ft | 148 kts | 350° |
| 2026-05-04 08:20 | -34.01417 | 151.19366 | 1074 ft | 149 kts | 349° |
| 2026-05-04 08:20 | -34.00394 | 151.19099 | 867 ft | 155 kts | 352° |
| 2026-05-04 08:20 | -33.99339 | 151.18825 | 670 ft | 152 kts | 350° |
| 2026-05-04 08:21 | -33.98339 | 151.18562 | 467 ft | 141 kts | 351° |
| 2026-05-04 08:21 | -33.97415 | 151.18320 | 283 ft | 133 kts | 350° |
| 2026-05-04 08:21 | -33.96471 | 151.18076 | 111 ft | 142 kts | 348° |
| 2026-05-04 08:21 | -33.95510 | 151.17827 | 35 ft | 133 kts | 347° |
| 2026-05-04 08:22 | -33.94736 | 151.17624 | 34 ft | 79 kts | 347° |
| 2026-05-04 08:22 | -33.94435 | 151.17479 | 35 ft | 36 kts | 320° |
| 2026-05-04 08:24 | -33.94068 | 151.17249 | 34 ft | 15 kts | 347° |
| 2026-05-04 08:24 | -33.93992 | 151.17175 | 34 ft | 15 kts | 286° |
| 2026-05-04 08:24 | -33.93916 | 151.17094 | 35 ft | 15 kts | 342° |
| 2026-05-04 08:24 | -33.93812 | 151.17066 | 35 ft | 14 kts | 347° |
| 2026-05-04 08:25 | -33.93792 | 151.16972 | 35 ft | 14 kts | 255° |
| 2026-05-04 08:25 | -33.93794 | 151.16960 | 35 ft | 0 kts | 255° |